createdAt,value
2017-07-20T00:00:18.242Z,0
2017-07-20T00:01:19.584Z,0
2017-07-20T00:02:20.804Z,0
2017-07-20T00:03:22.049Z,0
2017-07-20T00:04:23.296Z,0
2017-07-20T00:05:24.555Z,0
2017-07-20T00:06:25.842Z,0
2017-07-20T00:07:27.132Z,0
2017-07-20T00:08:28.350Z,0
2017-07-20T00:09:29.588Z,0
2017-07-20T00:10:30.919Z,0
2017-07-20T00:11:32.158Z,0
2017-07-20T00:12:33.448Z,0
2017-07-20T00:13:34.714Z,0
2017-07-20T00:14:35.953Z,0
2017-07-20T00:15:37.258Z,0
2017-07-20T00:16:38.496Z,0
2017-07-20T00:17:39.749Z,0
2017-07-20T00:18:40.989Z,0
2017-07-20T00:19:42.231Z,0
2017-07-20T00:20:43.467Z,0
2017-07-20T00:21:44.708Z,0
2017-07-20T00:22:45.939Z,0
2017-07-20T00:23:47.190Z,0
2017-07-20T00:24:48.499Z,0
2017-07-20T00:25:49.739Z,0
2017-07-20T00:26:50.977Z,0
2017-07-20T00:27:52.220Z,0
2017-07-20T00:28:53.465Z,0
2017-07-20T00:29:54.700Z,0
2017-07-20T00:30:55.968Z,0
2017-07-20T00:31:57.218Z,0
2017-07-20T00:32:58.449Z,0
2017-07-20T00:33:59.733Z,0
2017-07-20T00:35:00.958Z,0
2017-07-20T00:36:02.205Z,0
2017-07-20T00:37:03.453Z,0
2017-07-20T00:38:04.693Z,0
2017-07-20T00:39:05.932Z,0
2017-07-20T00:40:07.278Z,0
2017-07-20T00:41:08.512Z,0
2017-07-20T00:42:09.744Z,0
2017-07-20T00:43:10.994Z,0
2017-07-20T00:44:12.230Z,0
2017-07-20T00:45:13.476Z,0
2017-07-20T00:46:14.715Z,0
2017-07-20T00:47:15.962Z,0
2017-07-20T00:48:17.213Z,0
2017-07-20T00:49:18.461Z,0
2017-07-20T00:50:19.723Z,0
2017-07-20T00:51:20.977Z,0
2017-07-20T00:52:22.221Z,0
2017-07-20T00:53:23.528Z,0
2017-07-20T00:54:24.767Z,0
2017-07-20T00:55:26.002Z,0
2017-07-20T00:56:27.321Z,0
2017-07-20T00:57:28.578Z,0
2017-07-20T00:58:29.809Z,0
2017-07-20T00:59:31.042Z,0
2017-07-20T01:00:32.292Z,0
2017-07-20T01:01:33.557Z,0
2017-07-20T01:02:34.870Z,0
2017-07-20T01:03:36.016Z,0
2017-07-20T01:04:37.273Z,0
2017-07-20T01:05:38.542Z,0
2017-07-20T01:06:39.817Z,0
2017-07-20T01:07:41.066Z,0
2017-07-20T01:08:42.303Z,0
2017-07-20T01:09:43.581Z,0
2017-07-20T01:10:44.856Z,0
2017-07-20T01:11:46.172Z,0
2017-07-20T01:12:47.414Z,0
2017-07-20T01:13:48.659Z,0
2017-07-20T01:14:49.897Z,0
2017-07-20T01:15:51.154Z,0
2017-07-20T01:16:52.494Z,0
2017-07-20T01:17:53.745Z,0
2017-07-20T01:18:54.982Z,0
2017-07-20T01:19:56.239Z,0
2017-07-20T01:20:57.475Z,0
2017-07-20T01:21:58.773Z,0
2017-07-20T01:23:00.022Z,0
2017-07-20T01:24:01.335Z,0
2017-07-20T01:25:02.552Z,0
2017-07-20T01:26:03.797Z,0
2017-07-20T01:27:05.034Z,0
2017-07-20T01:28:06.271Z,0
2017-07-20T01:29:07.582Z,0
2017-07-20T01:30:08.847Z,0
2017-07-20T01:31:10.090Z,0
2017-07-20T01:32:11.329Z,0
2017-07-20T01:33:12.564Z,0
2017-07-20T01:34:13.837Z,0
2017-07-20T01:35:15.101Z,0
2017-07-20T01:36:16.330Z,0
2017-07-20T01:37:17.566Z,0
2017-07-20T01:38:18.815Z,0
2017-07-20T01:39:20.060Z,0
2017-07-20T01:40:21.312Z,0
2017-07-20T01:41:22.529Z,0
2017-07-20T01:42:23.819Z,0
2017-07-20T01:43:25.067Z,0
2017-07-20T01:44:26.306Z,0
2017-07-20T01:45:27.749Z,0
2017-07-20T01:46:29.111Z,0
2017-07-20T01:47:30.354Z,0
2017-07-20T01:48:31.613Z,0
2017-07-20T01:49:32.837Z,0
2017-07-20T01:50:34.073Z,0
2017-07-20T01:51:35.314Z,0
2017-07-20T01:52:36.556Z,0
2017-07-20T01:53:37.785Z,0
2017-07-20T01:54:39.046Z,0
2017-07-20T01:55:40.285Z,0
2017-07-20T01:56:41.530Z,0
2017-07-20T01:57:42.779Z,0
2017-07-20T01:58:44.029Z,0
2017-07-20T01:59:45.299Z,0
2017-07-20T02:00:46.662Z,0
2017-07-20T02:01:47.897Z,0
2017-07-20T02:02:49.146Z,0
2017-07-20T02:03:50.389Z,0
2017-07-20T02:04:51.628Z,0
2017-07-20T02:05:52.926Z,0
2017-07-20T02:06:54.102Z,0
2017-07-20T02:07:55.331Z,0
2017-07-20T02:08:56.652Z,0
2017-07-20T02:09:57.889Z,0
2017-07-20T02:10:59.207Z,0
2017-07-20T02:12:00.445Z,0
2017-07-20T02:13:01.680Z,0
2017-07-20T02:14:02.930Z,0
2017-07-20T02:15:04.180Z,0
2017-07-20T02:16:05.473Z,0
2017-07-20T02:17:06.712Z,0
2017-07-20T02:18:07.952Z,0
2017-07-20T02:19:09.196Z,0
2017-07-20T02:20:10.455Z,0
2017-07-20T02:21:11.666Z,0
2017-07-20T02:22:12.904Z,0
2017-07-20T02:23:14.136Z,0
2017-07-20T02:24:15.513Z,0
2017-07-20T02:25:16.763Z,0
2017-07-20T02:26:17.988Z,0
2017-07-20T02:27:19.332Z,0
2017-07-20T02:28:20.572Z,0
2017-07-20T02:29:21.813Z,0
2017-07-20T02:30:23.054Z,0
2017-07-20T02:31:24.296Z,0
2017-07-20T02:32:25.537Z,0
2017-07-20T02:33:26.797Z,0
2017-07-20T02:34:28.088Z,0
2017-07-20T02:35:29.413Z,0
2017-07-20T02:36:30.669Z,0
2017-07-20T02:37:31.903Z,0
2017-07-20T02:38:33.146Z,0
2017-07-20T02:39:34.387Z,0
2017-07-20T02:40:35.740Z,0
2017-07-20T02:41:37.049Z,0
2017-07-20T02:42:38.298Z,0
2017-07-20T02:43:39.537Z,0
2017-07-20T02:44:40.848Z,0
2017-07-20T02:45:42.087Z,0
2017-07-20T02:46:43.321Z,0
2017-07-20T02:47:44.565Z,0
2017-07-20T02:48:45.804Z,0
2017-07-20T02:49:47.172Z,0
2017-07-20T02:50:48.410Z,0
2017-07-20T02:51:49.941Z,0
2017-07-20T02:52:51.178Z,0
2017-07-20T02:53:52.419Z,0
2017-07-20T02:54:53.656Z,0
2017-07-20T02:55:54.920Z,0
2017-07-20T02:56:56.376Z,0
2017-07-20T02:57:57.607Z,0
2017-07-20T02:58:58.862Z,0
2017-07-20T03:00:00.102Z,0
2017-07-20T03:01:01.350Z,0
2017-07-20T03:02:02.589Z,0
2017-07-20T03:03:03.829Z,0
2017-07-20T03:04:05.067Z,0
2017-07-20T03:05:06.308Z,0
2017-07-20T03:06:07.554Z,0
2017-07-20T03:07:08.791Z,0
2017-07-20T03:08:10.030Z,0
2017-07-20T03:09:11.299Z,0
2017-07-20T03:10:12.603Z,0
2017-07-20T03:11:13.873Z,0
2017-07-20T03:12:15.108Z,0
2017-07-20T03:13:16.350Z,0
2017-07-20T03:14:17.586Z,0
2017-07-20T03:15:18.849Z,0
2017-07-20T03:16:20.075Z,0
2017-07-20T03:17:21.429Z,0
2017-07-20T03:18:22.699Z,0
2017-07-20T03:19:23.927Z,0
2017-07-20T03:20:25.300Z,0
2017-07-20T03:21:26.439Z,0
2017-07-20T03:22:27.755Z,0
2017-07-20T03:23:28.979Z,0
2017-07-20T03:24:30.224Z,0
2017-07-20T03:25:31.467Z,0
2017-07-20T03:26:32.705Z,0
2017-07-20T03:27:33.949Z,0
2017-07-20T03:28:35.275Z,0
2017-07-20T03:29:36.567Z,0
2017-07-20T03:30:37.802Z,0
2017-07-20T03:31:39.041Z,0
2017-07-20T03:32:40.272Z,0
2017-07-20T03:33:41.506Z,0
2017-07-20T03:34:42.914Z,0
2017-07-20T03:35:44.079Z,0
2017-07-20T03:36:45.328Z,0
2017-07-20T03:37:46.569Z,0
2017-07-20T03:38:47.825Z,0
2017-07-20T03:39:49.055Z,0
2017-07-20T03:40:50.283Z,0
2017-07-20T03:41:51.521Z,0
2017-07-20T03:42:52.893Z,0
2017-07-20T03:43:54.130Z,0
2017-07-20T03:44:55.366Z,0
2017-07-20T03:45:56.617Z,0
2017-07-20T03:46:57.866Z,0
2017-07-20T03:47:59.104Z,0
2017-07-20T03:49:00.426Z,0
2017-07-20T03:50:01.669Z,0
2017-07-20T03:51:02.914Z,0
2017-07-20T03:52:04.156Z,0
2017-07-20T03:53:05.412Z,0
2017-07-20T03:54:06.806Z,5
2017-07-20T03:55:07.978Z,5
2017-07-20T03:56:09.206Z,5
2017-07-20T03:57:10.446Z,5
2017-07-20T03:58:11.735Z,5
2017-07-20T03:59:12.971Z,10
2017-07-20T04:00:14.224Z,10
2017-07-20T04:01:15.461Z,10
2017-07-20T04:02:16.715Z,15
2017-07-20T04:03:18.099Z,15
2017-07-20T04:04:19.410Z,15
2017-07-20T04:05:20.646Z,20
2017-07-20T04:06:21.886Z,20
2017-07-20T04:07:23.181Z,20
2017-07-20T04:08:24.417Z,15
2017-07-20T04:09:25.661Z,15
2017-07-20T04:10:26.901Z,15
2017-07-20T04:11:28.143Z,15
2017-07-20T04:12:29.382Z,15
2017-07-20T04:13:30.781Z,15
2017-07-20T04:14:31.922Z,15
2017-07-20T04:15:33.223Z,15
2017-07-20T04:16:34.472Z,15
2017-07-20T04:17:35.709Z,20
2017-07-20T04:18:36.944Z,20
2017-07-20T04:19:38.226Z,20
2017-07-20T04:20:39.478Z,20
2017-07-20T04:21:40.845Z,20
2017-07-20T04:22:42.084Z,20
2017-07-20T04:23:43.312Z,20
2017-07-20T04:24:44.553Z,20
2017-07-20T04:25:45.843Z,15
2017-07-20T04:26:47.101Z,15
2017-07-20T04:27:48.378Z,15
2017-07-20T04:28:49.618Z,10
2017-07-20T04:29:50.858Z,10
2017-07-20T04:30:52.095Z,10
2017-07-20T04:31:53.340Z,10
2017-07-20T04:32:54.642Z,10
2017-07-20T04:33:55.814Z,10
2017-07-20T04:34:57.066Z,10
2017-07-20T04:35:58.300Z,10
2017-07-20T04:36:59.541Z,10
2017-07-20T04:38:00.778Z,10
2017-07-20T04:39:02.035Z,10
2017-07-20T04:40:03.272Z,5
2017-07-20T04:41:04.504Z,5
2017-07-20T04:42:05.760Z,5
2017-07-20T04:43:07.002Z,5
2017-07-20T04:44:08.254Z,5
2017-07-20T04:45:09.498Z,5
2017-07-20T04:46:10.775Z,5
2017-07-20T04:47:12.023Z,5
2017-07-20T04:48:13.296Z,10
2017-07-20T04:49:14.531Z,10
2017-07-20T04:50:15.774Z,10
2017-07-20T04:51:17.028Z,10
2017-07-20T04:52:18.274Z,10
2017-07-20T04:53:19.635Z,10
2017-07-20T04:54:20.873Z,10
2017-07-20T04:55:22.110Z,10
2017-07-20T04:56:23.368Z,10
2017-07-20T04:57:24.606Z,5
2017-07-20T04:58:25.885Z,5
2017-07-20T04:59:27.210Z,5
2017-07-20T05:00:28.445Z,5
2017-07-20T05:01:29.722Z,5
2017-07-20T05:02:30.961Z,5
2017-07-20T05:03:32.197Z,10
2017-07-20T05:04:33.449Z,10
2017-07-20T05:05:34.710Z,10
2017-07-20T05:06:35.931Z,10
2017-07-20T05:07:37.201Z,10
2017-07-20T05:08:38.433Z,10
2017-07-20T05:09:39.682Z,5
2017-07-20T05:10:41.065Z,5
2017-07-20T05:11:42.283Z,5
2017-07-20T05:12:43.607Z,5
2017-07-20T05:13:44.846Z,5
2017-07-20T05:14:46.100Z,5
2017-07-20T05:15:47.341Z,5
2017-07-20T05:16:48.566Z,5
2017-07-20T05:17:49.858Z,5
2017-07-20T05:18:51.096Z,5
2017-07-20T05:19:52.336Z,5
2017-07-20T05:20:53.578Z,5
2017-07-20T05:21:54.815Z,5
2017-07-20T05:22:56.055Z,5
2017-07-20T05:23:57.331Z,5
2017-07-20T05:24:58.591Z,5
2017-07-20T05:25:59.876Z,5
2017-07-20T05:27:01.124Z,5
2017-07-20T05:28:02.365Z,5
2017-07-20T05:29:03.602Z,5
2017-07-20T05:30:04.871Z,5
2017-07-20T05:31:06.158Z,10
2017-07-20T05:32:07.405Z,10
2017-07-20T05:33:08.652Z,10
2017-07-20T05:34:09.908Z,10
2017-07-20T05:35:11.133Z,10
2017-07-20T05:36:12.382Z,5
2017-07-20T05:37:13.612Z,5
2017-07-20T05:38:14.969Z,5
2017-07-20T05:39:16.206Z,5
2017-07-20T05:40:17.459Z,10
2017-07-20T05:41:18.698Z,10
2017-07-20T05:42:19.937Z,10
2017-07-20T05:43:21.356Z,10
2017-07-20T05:44:22.597Z,10
2017-07-20T05:45:23.872Z,10
2017-07-20T05:46:25.109Z,10
2017-07-20T05:47:26.343Z,10
2017-07-20T05:48:27.623Z,10
2017-07-20T05:49:28.866Z,10
2017-07-20T05:50:30.157Z,10
2017-07-20T05:51:31.455Z,10
2017-07-20T05:52:32.706Z,10
2017-07-20T05:53:33.978Z,10
2017-07-20T05:54:35.228Z,10
2017-07-20T05:55:36.462Z,15
2017-07-20T05:56:37.712Z,15
2017-07-20T05:57:38.952Z,15
2017-07-20T05:58:40.188Z,15
2017-07-20T05:59:41.769Z,20
2017-07-20T06:00:43.018Z,20
2017-07-20T06:01:44.268Z,20
2017-07-20T06:02:45.512Z,20
2017-07-20T06:03:46.744Z,20
2017-07-20T06:04:47.992Z,20
2017-07-20T06:05:49.396Z,20
2017-07-20T06:06:50.541Z,20
2017-07-20T06:07:51.867Z,20
2017-07-20T06:08:53.110Z,20
2017-07-20T06:09:54.353Z,25
2017-07-20T06:10:55.801Z,25
2017-07-20T06:11:57.145Z,25
2017-07-20T06:12:58.402Z,25
2017-07-20T06:13:59.625Z,25
2017-07-20T06:15:00.864Z,25
2017-07-20T06:16:02.151Z,30
2017-07-20T06:17:03.397Z,30
2017-07-20T06:18:04.625Z,30
2017-07-20T06:19:05.889Z,30
2017-07-20T06:20:07.221Z,35
2017-07-20T06:21:08.516Z,35
2017-07-20T06:22:09.767Z,40
2017-07-20T06:23:11.013Z,45
2017-07-20T06:24:12.265Z,45
2017-07-20T06:25:13.622Z,50
2017-07-20T06:26:14.895Z,55
2017-07-20T06:27:16.145Z,60
2017-07-20T06:28:17.449Z,65
2017-07-20T06:29:18.692Z,75
2017-07-20T06:30:19.933Z,80
2017-07-20T06:31:21.170Z,85
2017-07-20T06:32:22.479Z,90
2017-07-20T06:33:23.787Z,100
2017-07-20T06:34:25.038Z,110
2017-07-20T06:35:26.283Z,120
2017-07-20T06:36:27.533Z,130
2017-07-20T06:37:28.855Z,140
2017-07-20T06:38:30.141Z,145
2017-07-20T06:39:31.420Z,145
2017-07-20T06:40:32.660Z,145
2017-07-20T06:41:33.911Z,145
2017-07-20T06:42:35.262Z,155
2017-07-20T06:43:36.507Z,165
2017-07-20T06:44:37.754Z,180
2017-07-20T06:45:38.997Z,195
2017-07-20T06:46:40.246Z,205
2017-07-20T06:47:41.493Z,220
2017-07-20T06:48:42.732Z,235
2017-07-20T06:49:43.969Z,245
2017-07-20T06:50:45.216Z,250
2017-07-20T06:51:46.511Z,260
2017-07-20T06:52:47.754Z,290
2017-07-20T06:53:48.989Z,320
2017-07-20T06:54:50.236Z,360
2017-07-20T06:55:51.503Z,405
2017-07-20T06:56:52.778Z,445
2017-07-20T06:57:54.227Z,470
2017-07-20T06:58:56.320Z,490
2017-07-20T06:59:57.568Z,480
2017-07-20T07:00:58.825Z,475
2017-07-20T07:02:00.129Z,455
2017-07-20T07:03:01.370Z,435
2017-07-20T07:04:02.618Z,450
2017-07-20T07:05:03.852Z,415
2017-07-20T07:06:05.097Z,420
2017-07-20T07:07:06.346Z,420
2017-07-20T07:08:07.581Z,420
2017-07-20T07:09:08.828Z,415
2017-07-20T07:10:10.068Z,435
2017-07-20T07:11:11.361Z,470
2017-07-20T07:12:12.598Z,500
2017-07-20T07:13:13.839Z,515
2017-07-20T07:14:15.087Z,520
2017-07-20T07:15:16.323Z,500
2017-07-20T07:16:17.596Z,470
2017-07-20T07:17:18.855Z,445
2017-07-20T07:18:20.081Z,420
2017-07-20T07:19:21.325Z,405
2017-07-20T07:20:22.608Z,395
2017-07-20T07:21:23.859Z,395
2017-07-20T07:22:25.102Z,400
2017-07-20T07:23:26.339Z,405
2017-07-20T07:24:27.583Z,410
2017-07-20T07:25:28.869Z,425
2017-07-20T07:26:30.123Z,445
2017-07-20T07:27:31.367Z,445
2017-07-20T07:28:32.612Z,455
2017-07-20T07:29:33.882Z,445
2017-07-20T07:30:35.114Z,430
2017-07-20T07:31:36.361Z,405
2017-07-20T07:32:37.662Z,370
2017-07-20T07:33:38.897Z,305
2017-07-20T07:34:40.149Z,215
2017-07-20T07:35:41.468Z,170
2017-07-20T07:36:42.706Z,170
2017-07-20T07:37:43.951Z,200
2017-07-20T07:38:45.341Z,290
2017-07-20T07:39:46.563Z,230
2017-07-20T07:40:47.802Z,205
2017-07-20T07:41:49.047Z,205
2017-07-20T07:42:50.289Z,195
2017-07-20T07:43:51.534Z,250
2017-07-20T07:44:52.765Z,330
2017-07-20T07:45:54.042Z,420
2017-07-20T07:46:55.325Z,520
2017-07-20T07:47:56.582Z,565
2017-07-20T07:48:57.840Z,635
2017-07-20T07:49:59.063Z,745
2017-07-20T07:51:00.341Z,825
2017-07-20T07:52:01.589Z,740
2017-07-20T07:53:02.879Z,815
2017-07-20T07:54:04.229Z,690
2017-07-20T07:55:05.565Z,590
2017-07-20T07:56:06.803Z,620
2017-07-20T07:57:08.145Z,510
2017-07-20T07:58:09.393Z,390
2017-07-20T07:59:10.635Z,330
2017-07-20T08:00:11.930Z,280
2017-07-20T08:01:13.192Z,275
2017-07-20T08:02:14.412Z,275
2017-07-20T08:03:15.679Z,275
2017-07-20T08:04:16.938Z,260
2017-07-20T08:05:18.181Z,230
2017-07-20T08:06:19.482Z,175
2017-07-20T08:07:20.729Z,160
2017-07-20T08:08:21.954Z,155
2017-07-20T08:09:23.214Z,135
2017-07-20T08:10:24.440Z,115
2017-07-20T08:11:25.702Z,100
2017-07-20T08:12:26.960Z,100
2017-07-20T08:13:28.225Z,110
2017-07-20T08:14:29.467Z,110
2017-07-20T08:15:30.698Z,150
2017-07-20T08:16:32.020Z,160
2017-07-20T08:17:33.269Z,155
2017-07-20T08:18:34.531Z,170
2017-07-20T08:19:35.762Z,170
2017-07-20T08:20:37.015Z,170
2017-07-20T08:21:38.260Z,170
2017-07-20T08:22:39.539Z,175
2017-07-20T08:23:41.011Z,215
2017-07-20T08:24:42.267Z,265
2017-07-20T08:25:43.510Z,320
2017-07-20T08:26:44.757Z,250
2017-07-20T08:27:46.002Z,190
2017-07-20T08:28:47.276Z,190
2017-07-20T08:29:48.514Z,240
2017-07-20T08:30:49.823Z,290
2017-07-20T08:31:51.071Z,355
2017-07-20T08:32:52.297Z,375
2017-07-20T08:33:53.552Z,305
2017-07-20T08:34:54.800Z,295
2017-07-20T08:35:56.066Z,365
2017-07-20T08:36:57.347Z,430
2017-07-20T08:37:58.590Z,525
2017-07-20T08:38:59.877Z,570
2017-07-20T08:40:01.234Z,445
2017-07-20T08:41:02.435Z,470
2017-07-20T08:42:03.628Z,475
2017-07-20T08:43:04.871Z,420
2017-07-20T08:44:06.098Z,335
2017-07-20T08:45:07.410Z,370
2017-07-20T08:46:08.658Z,335
2017-07-20T08:47:09.913Z,245
2017-07-20T08:48:11.153Z,275
2017-07-20T08:49:12.384Z,250
2017-07-20T08:50:13.666Z,255
2017-07-20T08:51:14.912Z,250
2017-07-20T08:52:16.151Z,275
2017-07-20T08:53:17.450Z,325
2017-07-20T08:54:18.696Z,445
2017-07-20T08:55:20.042Z,510
2017-07-20T08:56:21.284Z,485
2017-07-20T08:57:22.524Z,355
2017-07-20T08:58:23.763Z,315
2017-07-20T08:59:25.008Z,420
2017-07-20T09:00:26.256Z,540
2017-07-20T09:01:27.493Z,590
2017-07-20T09:02:28.771Z,555
2017-07-20T09:03:30.038Z,485
2017-07-20T09:04:31.287Z,350
2017-07-20T09:05:32.531Z,325
2017-07-20T09:06:33.780Z,450
2017-07-20T09:07:35.028Z,435
2017-07-20T09:08:36.267Z,440
2017-07-20T09:09:37.505Z,465
2017-07-20T09:10:38.752Z,510
2017-07-20T09:11:39.996Z,420
2017-07-20T09:12:41.251Z,415
2017-07-20T09:13:42.490Z,340
2017-07-20T09:14:43.779Z,410
2017-07-20T09:15:45.058Z,590
2017-07-20T09:16:46.299Z,625
2017-07-20T09:17:47.556Z,490
2017-07-20T09:18:48.787Z,430
2017-07-20T09:19:50.026Z,410
2017-07-20T09:20:51.277Z,445
2017-07-20T09:21:52.526Z,525
2017-07-20T09:22:53.830Z,685
2017-07-20T09:23:55.070Z,460
2017-07-20T09:24:56.324Z,475
2017-07-20T09:25:57.577Z,430
2017-07-20T09:26:58.837Z,440
2017-07-20T09:28:00.139Z,380
2017-07-20T09:29:01.405Z,515
2017-07-20T09:30:02.656Z,665
2017-07-20T09:31:03.894Z,520
2017-07-20T09:32:05.138Z,440
2017-07-20T09:33:06.393Z,490
2017-07-20T09:34:07.631Z,1595
2017-07-20T09:35:08.944Z,1635
2017-07-20T09:36:10.201Z,2345
2017-07-20T09:37:11.542Z,1480
2017-07-20T09:38:12.794Z,1075
2017-07-20T09:39:14.036Z,690
2017-07-20T09:40:15.311Z,965
2017-07-20T09:41:16.564Z,1335
2017-07-20T09:42:17.804Z,1735
2017-07-20T09:43:19.045Z,1065
2017-07-20T09:44:20.302Z,2870
2017-07-20T09:45:21.653Z,2825
2017-07-20T09:46:22.921Z,1375
2017-07-20T09:47:24.193Z,2595
2017-07-20T09:48:25.425Z,2195
2017-07-20T09:49:26.665Z,3320
2017-07-20T09:50:27.908Z,3015
2017-07-20T09:51:29.160Z,2940
2017-07-20T09:52:30.435Z,2455
2017-07-20T09:53:31.672Z,1780
2017-07-20T09:54:32.918Z,1305
2017-07-20T09:55:34.167Z,2670
2017-07-20T09:56:35.499Z,2855
2017-07-20T09:57:36.681Z,710
2017-07-20T09:58:37.937Z,575
2017-07-20T09:59:39.181Z,505
2017-07-20T10:00:40.433Z,555
2017-07-20T10:01:41.702Z,485
2017-07-20T10:02:42.929Z,635
2017-07-20T10:03:44.179Z,1655
2017-07-20T10:04:45.445Z,1605
2017-07-20T10:05:46.776Z,1005
2017-07-20T10:06:48.020Z,1285
2017-07-20T10:07:49.321Z,940
2017-07-20T10:08:50.576Z,1305
2017-07-20T10:09:51.817Z,1965
2017-07-20T10:10:53.082Z,3520
2017-07-20T10:11:54.327Z,3210
2017-07-20T10:12:55.576Z,970
2017-07-20T10:13:56.829Z,585
2017-07-20T10:14:58.078Z,1145
2017-07-20T10:15:59.404Z,750
2017-07-20T10:17:00.589Z,775
2017-07-20T10:18:01.853Z,570
2017-07-20T10:19:03.197Z,575
2017-07-20T10:20:04.455Z,550
2017-07-20T10:21:05.718Z,505
2017-07-20T10:22:06.969Z,490
2017-07-20T10:23:08.210Z,675
2017-07-20T10:24:09.513Z,980
2017-07-20T10:25:10.773Z,1360
2017-07-20T10:26:12.026Z,950
2017-07-20T10:27:13.382Z,1030
2017-07-20T10:28:14.627Z,845
2017-07-20T10:29:15.925Z,770
2017-07-20T10:30:17.273Z,670
2017-07-20T10:31:18.574Z,660
2017-07-20T10:32:19.824Z,915
2017-07-20T10:33:21.072Z,785
2017-07-20T10:34:22.325Z,910
2017-07-20T10:35:23.668Z,1600
2017-07-20T10:36:24.930Z,1535
2017-07-20T10:37:26.183Z,1225
2017-07-20T10:38:27.456Z,2230
2017-07-20T10:39:28.731Z,1190
2017-07-20T10:40:29.974Z,965
2017-07-20T10:41:31.227Z,895
2017-07-20T10:42:32.473Z,760
2017-07-20T10:43:33.725Z,675
2017-07-20T10:44:34.972Z,710
2017-07-20T10:45:36.221Z,695
2017-07-20T10:46:37.484Z,625
2017-07-20T10:47:38.726Z,540
2017-07-20T10:48:39.990Z,620
2017-07-20T10:49:41.251Z,840
2017-07-20T10:50:42.494Z,1000
2017-07-20T10:51:43.741Z,1130
2017-07-20T10:52:44.982Z,1250
2017-07-20T10:53:46.228Z,1220
2017-07-20T10:54:47.479Z,1175
2017-07-20T10:55:48.855Z,1150
2017-07-20T10:56:50.119Z,1055
2017-07-20T10:57:51.369Z,975
2017-07-20T10:58:52.616Z,950
2017-07-20T10:59:53.886Z,895
2017-07-20T11:00:55.133Z,870
2017-07-20T11:01:56.398Z,855
2017-07-20T11:02:57.689Z,855
2017-07-20T11:03:58.941Z,830
2017-07-20T11:05:00.189Z,865
2017-07-20T11:06:01.546Z,915
2017-07-20T11:07:02.797Z,900
2017-07-20T11:08:04.167Z,1005
2017-07-20T11:09:05.420Z,865
2017-07-20T11:10:06.665Z,555
2017-07-20T11:11:08.116Z,435
2017-07-20T11:12:09.363Z,430
2017-07-20T11:13:10.601Z,415
2017-07-20T11:14:11.869Z,440
2017-07-20T11:15:13.201Z,495
2017-07-20T11:16:14.453Z,460
2017-07-20T11:17:15.806Z,530
2017-07-20T11:18:17.162Z,690
2017-07-20T11:19:18.359Z,745
2017-07-20T11:20:19.716Z,770
2017-07-20T11:21:20.968Z,780
2017-07-20T11:22:22.222Z,765
2017-07-20T11:23:23.483Z,765
2017-07-20T11:24:24.741Z,765
2017-07-20T11:25:26.073Z,760
2017-07-20T11:26:27.362Z,760
2017-07-20T11:27:28.609Z,755
2017-07-20T11:28:29.880Z,730
2017-07-20T11:29:31.150Z,675
2017-07-20T11:30:32.404Z,600
2017-07-20T11:31:33.780Z,540
2017-07-20T11:32:35.038Z,505
2017-07-20T11:33:36.285Z,485
2017-07-20T11:34:37.541Z,485
2017-07-20T11:35:38.769Z,490
2017-07-20T11:36:40.056Z,510
2017-07-20T11:37:41.369Z,525
2017-07-20T11:38:42.656Z,540
2017-07-20T11:39:43.982Z,575
2017-07-20T11:40:45.227Z,690
2017-07-20T11:41:46.483Z,760
2017-07-20T11:42:47.824Z,810
2017-07-20T11:43:49.081Z,835
2017-07-20T11:44:50.334Z,845
2017-07-20T11:45:51.694Z,840
2017-07-20T11:46:52.930Z,835
2017-07-20T11:47:54.182Z,845
2017-07-20T11:48:55.438Z,835
2017-07-20T11:49:56.700Z,845
2017-07-20T11:50:57.947Z,850
2017-07-20T11:51:59.194Z,855
2017-07-20T11:53:00.446Z,870
2017-07-20T11:54:01.720Z,880
2017-07-20T11:55:03.067Z,895
2017-07-20T11:56:04.230Z,905
2017-07-20T11:57:05.491Z,905
2017-07-20T11:58:06.734Z,895
2017-07-20T11:59:08.001Z,880
2017-07-20T12:00:09.246Z,865
2017-07-20T12:01:10.491Z,845
2017-07-20T12:02:11.734Z,820
2017-07-20T12:03:12.983Z,805
2017-07-20T12:04:14.320Z,795
2017-07-20T12:05:15.574Z,770
2017-07-20T12:06:16.823Z,765
2017-07-20T12:07:18.069Z,745
2017-07-20T12:08:19.438Z,730
2017-07-20T12:09:20.681Z,710
2017-07-20T12:10:21.978Z,700
2017-07-20T12:11:23.232Z,705
2017-07-20T12:12:24.487Z,700
2017-07-20T12:13:25.871Z,690
2017-07-20T12:14:27.134Z,705
2017-07-20T12:15:28.392Z,725
2017-07-20T12:16:29.646Z,725
2017-07-20T12:17:30.891Z,715
2017-07-20T12:18:32.138Z,785
2017-07-20T12:19:33.393Z,810
2017-07-20T12:20:34.669Z,785
2017-07-20T12:21:35.914Z,755
2017-07-20T12:22:37.172Z,690
2017-07-20T12:23:38.421Z,655
2017-07-20T12:24:39.717Z,620
2017-07-20T12:25:40.961Z,570
2017-07-20T12:26:42.216Z,505
2017-07-20T12:27:43.481Z,465
2017-07-20T12:28:44.732Z,455
2017-07-20T12:29:45.994Z,400
2017-07-20T12:30:47.231Z,400
2017-07-20T12:31:48.491Z,415
2017-07-20T12:32:49.736Z,530
2017-07-20T12:33:50.977Z,615
2017-07-20T12:34:52.225Z,535
2017-07-20T12:35:53.488Z,490
2017-07-20T12:36:54.742Z,480
2017-07-20T12:37:56.006Z,620
2017-07-20T12:38:57.286Z,545
2017-07-20T12:39:58.508Z,475
2017-07-20T12:40:59.757Z,415
2017-07-20T12:42:01.002Z,420
2017-07-20T12:43:02.253Z,440
2017-07-20T12:44:03.571Z,410
2017-07-20T12:45:04.755Z,400
2017-07-20T12:46:06.109Z,405
2017-07-20T12:47:07.367Z,430
2017-07-20T12:48:08.608Z,410
2017-07-20T12:49:09.905Z,400
2017-07-20T12:50:11.152Z,415
2017-07-20T12:51:12.402Z,410
2017-07-20T12:52:13.664Z,390
2017-07-20T12:53:14.911Z,400
2017-07-20T12:54:16.153Z,400
2017-07-20T12:55:17.417Z,480
2017-07-20T12:56:18.657Z,405
2017-07-20T12:57:20.000Z,370
2017-07-20T12:58:21.217Z,355
2017-07-20T12:59:22.471Z,345
2017-07-20T13:00:23.717Z,335
2017-07-20T13:01:24.959Z,330
2017-07-20T13:02:26.192Z,290
2017-07-20T13:03:27.483Z,270
2017-07-20T13:04:28.728Z,270
2017-07-20T13:05:29.980Z,285
2017-07-20T13:06:31.278Z,320
2017-07-20T13:07:32.525Z,370
2017-07-20T13:08:33.775Z,400
2017-07-20T13:09:35.010Z,420
2017-07-20T13:10:36.253Z,405
2017-07-20T13:11:37.876Z,275
2017-07-20T13:12:39.026Z,190
2017-07-20T13:13:40.266Z,180
2017-07-20T13:14:41.522Z,175
2017-07-20T13:15:42.764Z,140
2017-07-20T13:16:44.031Z,135
2017-07-20T13:17:45.386Z,115
2017-07-20T13:18:46.633Z,95
2017-07-20T13:19:47.876Z,95
2017-07-20T13:20:49.131Z,120
2017-07-20T13:21:50.376Z,150
2017-07-20T13:22:51.731Z,175
2017-07-20T13:23:52.988Z,225
2017-07-20T13:24:54.250Z,280
2017-07-20T13:25:55.591Z,305
2017-07-20T13:26:56.841Z,325
2017-07-20T13:27:58.084Z,350
2017-07-20T13:28:59.332Z,370
2017-07-20T13:30:00.573Z,360
2017-07-20T13:31:01.823Z,345
2017-07-20T13:32:03.056Z,330
2017-07-20T13:33:04.289Z,355
2017-07-20T13:34:05.557Z,445
2017-07-20T13:35:06.785Z,590
2017-07-20T13:36:08.070Z,680
2017-07-20T13:37:09.315Z,720
2017-07-20T13:38:10.574Z,715
2017-07-20T13:39:11.901Z,645
2017-07-20T13:40:13.154Z,560
2017-07-20T13:41:14.448Z,560
2017-07-20T13:42:15.682Z,545
2017-07-20T13:43:17.018Z,465
2017-07-20T13:44:18.289Z,425
2017-07-20T13:45:19.527Z,450
2017-07-20T13:46:20.826Z,495
2017-07-20T13:47:22.079Z,470
2017-07-20T13:48:23.318Z,440
2017-07-20T13:49:24.564Z,405
2017-07-20T13:50:25.909Z,390
2017-07-20T13:51:27.177Z,380
2017-07-20T13:52:28.437Z,400
2017-07-20T13:53:29.677Z,435
2017-07-20T13:54:31.004Z,450
2017-07-20T13:55:32.278Z,425
2017-07-20T13:56:33.509Z,385
2017-07-20T13:57:34.744Z,365
2017-07-20T13:58:35.987Z,370
2017-07-20T13:59:37.338Z,385
2017-07-20T14:00:38.580Z,400
2017-07-20T14:01:39.830Z,410
2017-07-20T14:02:41.081Z,435
2017-07-20T14:03:42.326Z,480
2017-07-20T14:04:43.598Z,500
2017-07-20T14:05:44.848Z,495
2017-07-20T14:06:46.176Z,490
2017-07-20T14:07:47.436Z,495
2017-07-20T14:08:48.683Z,485
2017-07-20T14:09:50.000Z,475
2017-07-20T14:10:51.286Z,475
2017-07-20T14:11:52.509Z,475
2017-07-20T14:12:53.790Z,485
2017-07-20T14:13:55.108Z,480
2017-07-20T14:14:56.355Z,475
2017-07-20T14:15:57.585Z,460
2017-07-20T14:16:58.839Z,440
2017-07-20T14:18:00.120Z,405
2017-07-20T14:19:01.441Z,365
2017-07-20T14:20:02.691Z,345
2017-07-20T14:21:03.987Z,325
2017-07-20T14:22:05.236Z,295
2017-07-20T14:23:06.478Z,285
2017-07-20T14:24:07.727Z,310
2017-07-20T14:25:08.994Z,275